Time;durP1;ratioP1;P1;durP2;ratioP2;P2;SDS_P1;SDS_P2;PMS_P1;PMS_P2;Temp;Humidity;BMP_temperature;BMP_pressure;BME280_temperature;BME280_humidity;BME280_pressure;Samples;Min_cycle;Max_cycle;Signal;HPM_P1;HPM_P2
2021/08/25 00:01:43;;;;;;;2.90;1.58;;;;;;;;;;5019105;28;20449;-75
2021/08/25 00:04:10;;;;;;;2.63;1.42;;;;;;;;;;5020641;28;20050;-74
2021/08/25 00:06:37;;;;;;;1.98;1.30;;;;;;;;;;5019187;28;20545;-74
2021/08/25 00:09:04;;;;;;;2.42;1.50;;;;;;;;;;5021552;28;20073;-74
2021/08/25 00:11:31;;;;;;;2.83;1.85;;;;;;;;;;5025778;28;20065;-74
2021/08/25 00:13:58;;;;;;;2.63;1.60;;;;;;;;;;5019501;28;20092;-74
2021/08/25 00:16:25;;;;;;;2.63;1.60;;;;;;;;;;5015283;28;20115;-73
2021/08/25 00:18:51;;;;;;;2.85;1.58;;;;;;;;;;5017472;28;20537;-74
2021/08/25 00:21:18;;;;;;;2.95;1.50;;;;;;;;;;5019902;28;20057;-74
2021/08/25 00:23:44;;;;;;;4.30;1.70;;;;;;;;;;5018042;28;20069;-74
2021/08/25 00:26:10;;;;;;;2.45;1.42;;;;;;;;;;5014220;28;20049;-74
2021/08/25 00:28:37;;;;;;;3.00;1.50;;;;;;;;;;5012074;28;20593;-74
2021/08/25 00:31:03;;;;;;;2.60;1.80;;;;;;;;;;5021892;28;20104;-73
2021/08/25 00:33:29;;;;;;;3.35;1.52;;;;;;;;;;5023174;28;20111;-73
2021/08/25 00:35:56;;;;;;;2.47;1.60;;;;;;;;;;5016628;28;20064;-73
2021/08/25 00:38:22;;;;;;;2.55;1.55;;;;;;;;;;5024193;28;20069;-74
2021/08/25 00:40:49;;;;;;;3.50;1.58;;;;;;;;;;5021713;28;20057;-74
2021/08/25 00:43:15;;;;;;;3.38;1.67;;;;;;;;;;5023749;28;20064;-74
2021/08/25 00:45:45;;;;;;;2.60;1.60;;;;;;;;;;5013168;28;20144;-73
2021/08/25 00:48:14;;;;;;;2.22;1.40;;;;;;;;;;5012905;28;20053;-74
2021/08/25 00:50:41;;;;;;;3.15;1.48;;;;;;;;;;5016379;28;20072;-74
2021/08/25 00:53:08;;;;;;;1.98;1.23;;;;;;;;;;5021695;28;20065;-74
2021/08/25 00:55:35;;;;;;;2.10;1.20;;;;;;;;;;5024417;28;20068;-74
2021/08/25 00:58:02;;;;;;;3.42;1.48;;;;;;;;;;5021713;28;20096;-73
2021/08/25 01:00:31;;;;;;;3.25;1.80;;;;;;;;;;5022509;28;20057;-73
2021/08/25 01:03:01;;;;;;;3.05;1.65;;;;;;;;;;5020419;28;20053;-73
2021/08/25 01:05:28;;;;;;;2.07;1.40;;;;;;;;;;5017949;28;20053;-73
2021/08/25 01:07:55;;;;;;;2.63;1.70;;;;;;;;;;5017999;28;20061;-73
2021/08/25 01:10:32;;;;;;;2.47;1.55;;;;;;;;;;5022350;28;20433;-73
2021/08/25 01:13:06;;;;;;;2.70;1.40;;;;;;;;;;5022428;28;21233;-73
2021/08/25 01:15:40;;;;;;;3.75;1.70;;;;;;;;;;5016115;28;20618;-74
2021/08/25 01:18:09;;;;;;;2.78;1.50;;;;;;;;;;5021710;28;20060;-74
2021/08/25 01:20:37;;;;;;;3.00;1.52;;;;;;;;;;5019568;28;20057;-74
2021/08/25 01:23:04;;;;;;;3.53;1.35;;;;;;;;;;5018555;28;20061;-74
2021/08/25 01:25:31;;;;;;;3.03;1.38;;;;;;;;;;5018041;28;20057;-74
2021/08/25 01:28:08;;;;;;;2.78;1.52;;;;;;;;;;5020230;28;20638;-74
2021/08/25 01:30:37;;;;;;;2.88;1.40;;;;;;;;;;5023322;28;20580;-74
2021/08/25 01:33:04;;;;;;;3.33;1.67;;;;;;;;;;5025225;28;20107;-73
2021/08/25 01:35:48;;;;;;;3.78;1.38;;;;;;;;;;5022216;28;20069;-74
2021/08/25 01:38:23;;;;;;;2.35;1.42;;;;;;;;;;5020200;28;20065;-73
2021/08/25 01:40:49;;;;;;;3.17;1.40;;;;;;;;;;5011972;28;20058;-73
2021/08/25 01:43:15;;;;;;;2.53;1.50;;;;;;;;;;5012823;28;20092;-72
2021/08/25 01:45:42;;;;;;;4.35;1.70;;;;;;;;;;5021533;28;20123;-74
2021/08/25 01:48:08;;;;;;;4.30;1.50;;;;;;;;;;5023968;28;20134;-74
2021/08/25 01:50:35;;;;;;;4.22;1.40;;;;;;;;;;5019098;28;20069;-74
2021/08/25 01:53:01;;;;;;;2.50;1.35;;;;;;;;;;5015364;28;20056;-75
2021/08/25 01:55:27;;;;;;;2.90;1.48;;;;;;;;;;4994452;28;20050;-73
2021/08/25 01:57:54;;;;;;;2.67;1.48;;;;;;;;;;4996996;28;20057;-74
2021/08/25 02:00:20;;;;;;;2.55;1.33;;;;;;;;;;5001731;28;20571;-73
2021/08/25 02:02:46;;;;;;;2.72;1.40;;;;;;;;;;5001998;28;20165;-74
2021/08/25 02:05:13;;;;;;;2.95;1.60;;;;;;;;;;5003386;28;20062;-74
2021/08/25 02:07:39;;;;;;;3.33;1.60;;;;;;;;;;4994214;28;20510;-74
2021/08/25 02:10:06;;;;;;;2.42;1.42;;;;;;;;;;4996931;28;20128;-73
2021/08/25 02:12:32;;;;;;;1.58;1.10;;;;;;;;;;4999698;28;20062;-73
2021/08/25 02:14:59;;;;;;;2.15;1.30;;;;;;;;;;5001380;28;20534;-73
2021/08/25 02:17:25;;;;;;;2.25;1.15;;;;;;;;;;5006430;28;20066;-73
2021/08/25 02:19:51;;;;;;;3.13;1.40;;;;;;;;;;5011133;28;20086;-74
2021/08/25 02:22:18;;;;;;;2.20;1.15;;;;;;;;;;5013325;28;20046;-73
2021/08/25 02:24:44;;;;;;;2.35;1.38;;;;;;;;;;4996521;28;20074;-74
2021/08/25 02:27:10;;;;;;;2.20;1.30;;;;;;;;;;4996508;28;20054;-74
2021/08/25 02:29:37;;;;;;;2.20;1.00;;;;;;;;;;5012615;28;20062;-74
2021/08/25 02:32:03;;;;;;;1.70;1.02;;;;;;;;;;5019553;28;20528;-74
2021/08/25 02:34:30;;;;;;;1.40;1.00;;;;;;;;;;5014377;28;20065;-75
2021/08/25 02:36:56;;;;;;;3.13;1.30;;;;;;;;;;5019585;28;20138;-74
2021/08/25 02:39:22;;;;;;;1.75;1.17;;;;;;;;;;5017409;28;20076;-74
2021/08/25 02:41:49;;;;;;;3.05;1.23;;;;;;;;;;5010851;28;20061;-74
2021/08/25 02:44:15;;;;;;;4.82;1.25;;;;;;;;;;5020680;28;20433;-74
2021/08/25 02:46:42;;;;;;;2.03;1.20;;;;;;;;;;5022518;28;20076;-74
2021/08/25 02:49:09;;;;;;;3.35;1.38;;;;;;;;;;5014374;28;20073;-74
2021/08/25 02:51:35;;;;;;;1.98;1.10;;;;;;;;;;5019693;28;20057;-74
2021/08/25 02:54:01;;;;;;;2.53;1.20;;;;;;;;;;5021092;28;20068;-73
2021/08/25 02:56:28;;;;;;;2.53;1.27;;;;;;;;;;5020425;28;20588;-74
2021/08/25 02:58:54;;;;;;;2.50;1.10;;;;;;;;;;5012688;28;20053;-73
2021/08/25 03:01:20;;;;;;;2.17;0.98;;;;;;;;;;5018780;28;20497;-73
2021/08/25 03:03:47;;;;;;;2.95;1.67;;;;;;;;;;5017846;28;20071;-75
2021/08/25 03:06:13;;;;;;;3.15;1.80;;;;;;;;;;5018962;28;20073;-74
2021/08/25 03:08:40;;;;;;;2.15;1.10;;;;;;;;;;5012018;28;20067;-73
2021/08/25 03:11:09;;;;;;;1.70;0.98;;;;;;;;;;5020464;28;20066;-73
2021/08/25 03:13:35;;;;;;;2.53;1.25;;;;;;;;;;5021708;28;20120;-74
2021/08/25 03:16:02;;;;;;;2.00;1.23;;;;;;;;;;5012240;28;20494;-74
2021/08/25 03:18:28;;;;;;;1.95;1.10;;;;;;;;;;5016508;28;20061;-74
2021/08/25 03:20:54;;;;;;;2.03;1.20;;;;;;;;;;5020960;28;20052;-73
2021/08/25 03:23:21;;;;;;;1.75;1.10;;;;;;;;;;5014353;28;20141;-74
2021/08/25 03:25:47;;;;;;;1.88;1.00;;;;;;;;;;5025301;28;20057;-74
2021/08/25 03:28:14;;;;;;;1.90;1.00;;;;;;;;;;5006445;28;20775;-74
2021/08/25 03:30:40;;;;;;;2.33;1.30;;;;;;;;;;5009744;28;20088;-73
2021/08/25 03:33:06;;;;;;;2.30;1.00;;;;;;;;;;5016506;28;20139;-72
2021/08/25 03:35:33;;;;;;;2.33;1.10;;;;;;;;;;5018417;28;20108;-75
2021/08/25 03:38:00;;;;;;;3.50;1.13;;;;;;;;;;5016614;28;20155;-74
2021/08/25 03:40:26;;;;;;;2.20;1.20;;;;;;;;;;5019582;28;20077;-74
2021/08/25 03:42:53;;;;;;;1.75;1.10;;;;;;;;;;5019961;28;20332;-74
2021/08/25 03:45:19;;;;;;;2.10;0.82;;;;;;;;;;5015999;28;20068;-74
2021/08/25 03:47:45;;;;;;;2.42;1.30;;;;;;;;;;5016897;28;20133;-74
2021/08/25 03:50:12;;;;;;;3.05;1.20;;;;;;;;;;5021240;28;20123;-73
2021/08/25 03:52:38;;;;;;;2.05;1.00;;;;;;;;;;5023753;28;20065;-74
2021/08/25 03:55:05;;;;;;;1.42;0.95;;;;;;;;;;5018419;28;20026;-74
2021/08/25 03:57:31;;;;;;;2.75;1.38;;;;;;;;;;5015673;28;20519;-73
2021/08/25 03:59:58;;;;;;;2.63;1.20;;;;;;;;;;5017708;28;20165;-73
2021/08/25 04:02:24;;;;;;;2.78;1.10;;;;;;;;;;5021341;28;20704;-74
2021/08/25 04:04:51;;;;;;;2.53;1.25;;;;;;;;;;5023859;28;20073;-74
2021/08/25 04:07:17;;;;;;;2.80;1.20;;;;;;;;;;5017985;28;20060;-74
2021/08/25 04:09:43;;;;;;;3.00;1.50;;;;;;;;;;5009514;28;20476;-74
2021/08/25 04:12:10;;;;;;;3.83;1.52;;;;;;;;;;5026417;28;20068;-74
2021/08/25 04:14:36;;;;;;;3.72;1.40;;;;;;;;;;5020712;28;20065;-75
2021/08/25 04:17:03;;;;;;;4.32;1.65;;;;;;;;;;5024185;28;20075;-76
2021/08/25 04:19:29;;;;;;;6.68;1.98;;;;;;;;;;5021323;28;20058;-75
2021/08/25 04:21:56;;;;;;;4.20;1.63;;;;;;;;;;5018055;28;20056;-75
2021/08/25 04:24:22;;;;;;;5.75;1.80;;;;;;;;;;5020005;28;20064;-75
2021/08/25 04:26:49;;;;;;;6.95;1.88;;;;;;;;;;5021670;28;20061;-75
2021/08/25 04:29:15;;;;;;;6.07;1.45;;;;;;;;;;5019110;28;20124;-73
2021/08/25 04:31:41;;;;;;;4.93;1.55;;;;;;;;;;5028560;28;20065;-74
2021/08/25 04:34:08;;;;;;;7.25;2.00;;;;;;;;;;5018044;28;20136;-74
2021/08/25 04:36:34;;;;;;;5.13;1.98;;;;;;;;;;5018312;28;20535;-73
2021/08/25 04:39:01;;;;;;;3.08;1.42;;;;;;;;;;5013951;28;20172;-73
2021/08/25 04:41:27;;;;;;;5.53;1.83;;;;;;;;;;5018188;28;20061;-75
2021/08/25 04:43:55;;;;;;;7.65;1.75;;;;;;;;;;5004685;28;20045;-74
2021/08/25 04:46:21;;;;;;;2.78;1.27;;;;;;;;;;5023099;28;20130;-74
2021/08/25 04:48:48;;;;;;;3.13;1.52;;;;;;;;;;5018945;28;20111;-74
2021/08/25 04:51:14;;;;;;;4.82;1.90;;;;;;;;;;5016830;28;20076;-74
2021/08/25 04:53:41;;;;;;;4.97;1.83;;;;;;;;;;5021322;28;20520;-76
2021/08/25 04:56:08;;;;;;;5.18;2.15;;;;;;;;;;5033014;28;20524;-73
2021/08/25 04:58:34;;;;;;;5.60;1.50;;;;;;;;;;5016424;28;20053;-74
2021/08/25 05:01:01;;;;;;;6.05;1.83;;;;;;;;;;5016294;28;20069;-74
2021/08/25 05:03:28;;;;;;;5.47;1.98;;;;;;;;;;5011979;28;20061;-75
2021/08/25 05:05:54;;;;;;;4.88;1.70;;;;;;;;;;5020454;28;20115;-76
2021/08/25 05:08:21;;;;;;;3.55;1.67;;;;;;;;;;5023433;28;20038;-75
2021/08/25 05:10:48;;;;;;;8.13;1.63;;;;;;;;;;5015810;28;20041;-74
2021/08/25 05:13:14;;;;;;;6.20;1.90;;;;;;;;;;5012867;28;20504;-75
2021/08/25 05:15:46;;;;;;;5.50;1.52;;;;;;;;;;5024979;28;20068;-75
2021/08/25 05:18:13;;;;;;;5.15;1.80;;;;;;;;;;5024642;28;20068;-74
2021/08/25 05:20:39;;;;;;;4.60;1.55;;;;;;;;;;5012457;28;20079;-74
2021/08/25 05:23:06;;;;;;;3.90;1.70;;;;;;;;;;5018055;28;20095;-74
2021/08/25 05:25:32;;;;;;;3.35;1.30;;;;;;;;;;5011823;28;20073;-75
2021/08/25 05:27:58;;;;;;;6.68;1.90;;;;;;;;;;5012884;28;20123;-75
2021/08/25 05:30:25;;;;;;;6.47;1.65;;;;;;;;;;5018290;28;20123;-76
2021/08/25 05:32:52;;;;;;;4.80;1.63;;;;;;;;;;5019228;28;20069;-74
2021/08/25 05:35:19;;;;;;;3.80;1.80;;;;;;;;;;5012286;28;20084;-75
2021/08/25 05:37:46;;;;;;;7.97;1.40;;;;;;;;;;5017420;28;20094;-75
2021/08/25 05:40:13;;;;;;;4.03;1.52;;;;;;;;;;5018495;28;20058;-75
2021/08/25 05:42:44;;;;;;;4.75;1.50;;;;;;;;;;5011532;28;20075;-74
2021/08/25 05:45:10;;;;;;;4.83;1.57;;;;;;;;;;5018029;28;20069;-76
2021/08/25 05:47:37;;;;;;;6.65;2.00;;;;;;;;;;5019630;28;20061;-75
2021/08/25 05:50:04;;;;;;;2.97;1.50;;;;;;;;;;5016353;28;20068;-74
2021/08/25 05:52:30;;;;;;;4.72;1.48;;;;;;;;;;5017844;28;20119;-76
2021/08/25 05:54:57;;;;;;;4.53;1.60;;;;;;;;;;5017893;28;20123;-76
2021/08/25 05:57:23;;;;;;;4.85;1.90;;;;;;;;;;5017522;28;20811;-76
2021/08/25 05:59:50;;;;;;;3.35;1.92;;;;;;;;;;5012785;28;20076;-76
2021/08/25 06:02:16;;;;;;;5.13;1.50;;;;;;;;;;5015212;28;20099;-76
2021/08/25 06:04:42;;;;;;;4.00;1.70;;;;;;;;;;5016857;28;20483;-77
2021/08/25 06:07:09;;;;;;;5.57;1.70;;;;;;;;;;5027039;28;20147;-75
2021/08/25 06:09:36;;;;;;;3.17;1.40;;;;;;;;;;5020548;28;20528;-75
2021/08/25 06:12:02;;;;;;;5.05;1.80;;;;;;;;;;5015554;28;20533;-75
2021/08/25 06:14:29;;;;;;;3.65;1.85;;;;;;;;;;5020341;28;20130;-76
2021/08/25 06:16:55;;;;;;;5.50;2.00;;;;;;;;;;5018190;28;20037;-76
2021/08/25 06:19:22;;;;;;;4.68;1.70;;;;;;;;;;5017351;28;20075;-74
2021/08/25 06:21:48;;;;;;;6.72;1.88;;;;;;;;;;5024503;28;20057;-76
2021/08/25 06:24:15;;;;;;;3.67;1.48;;;;;;;;;;5021586;28;20057;-75
2021/08/25 06:26:41;;;;;;;5.57;1.58;;;;;;;;;;5013300;28;20572;-76
2021/08/25 06:29:08;;;;;;;4.45;1.90;;;;;;;;;;5020230;28;20441;-75
2021/08/25 06:31:35;;;;;;;3.20;1.42;;;;;;;;;;5018097;28;20127;-75
2021/08/25 06:34:02;;;;;;;2.45;1.60;;;;;;;;;;5018974;28;20061;-75
2021/08/25 06:36:28;;;;;;;5.45;1.85;;;;;;;;;;5010492;28;20127;-75
2021/08/25 06:38:55;;;;;;;4.57;1.65;;;;;;;;;;5010219;28;20135;-75
2021/08/25 06:41:21;;;;;;;5.75;1.63;;;;;;;;;;5016628;28;20065;-75
2021/08/25 06:43:47;;;;;;;4.50;1.58;;;;;;;;;;5014221;28;20497;-76
2021/08/25 06:46:16;;;;;;;3.90;1.85;;;;;;;;;;5012105;28;20065;-74
2021/08/25 06:48:43;;;;;;;4.40;1.95;;;;;;;;;;5018187;28;20061;-75
2021/08/25 06:51:09;;;;;;;4.97;1.88;;;;;;;;;;5009640;28;20081;-76
2021/08/25 06:53:35;;;;;;;4.88;2.03;;;;;;;;;;5017042;28;20049;-76
2021/08/25 06:56:02;;;;;;;4.75;2.13;;;;;;;;;;5031845;28;20064;-75
2021/08/25 06:58:28;;;;;;;4.40;1.77;;;;;;;;;;5020521;28;20075;-76
2021/08/25 07:00:56;;;;;;;3.85;1.60;;;;;;;;;;5021609;28;20054;-76
2021/08/25 07:03:22;;;;;;;4.57;1.88;;;;;;;;;;5013162;28;20091;-76
2021/08/25 07:05:49;;;;;;;5.38;2.47;;;;;;;;;;5011843;28;20057;-76
2021/08/25 07:08:15;;;;;;;3.55;1.88;;;;;;;;;;5019430;28;20541;-75
2021/08/25 07:10:42;;;;;;;4.88;1.98;;;;;;;;;;5010208;28;20073;-75
2021/08/25 07:13:08;;;;;;;4.47;2.10;;;;;;;;;;5014596;28;20056;-75
2021/08/25 07:15:35;;;;;;;3.50;1.83;;;;;;;;;;5019751;28;20045;-74
2021/08/25 07:18:01;;;;;;;6.25;2.20;;;;;;;;;;5016905;28;20147;-76
2021/08/25 07:20:28;;;;;;;7.05;1.90;;;;;;;;;;5009924;28;20060;-75
2021/08/25 07:22:54;;;;;;;3.35;1.88;;;;;;;;;;5014861;28;20064;-76
2021/08/25 07:25:20;;;;;;;5.00;2.03;;;;;;;;;;5017274;28;20516;-76
2021/08/25 07:27:47;;;;;;;5.10;1.90;;;;;;;;;;5024601;28;20072;-74
2021/08/25 07:30:13;;;;;;;4.78;1.80;;;;;;;;;;5021206;28;20068;-75
2021/08/25 07:32:40;;;;;;;3.20;1.42;;;;;;;;;;5025038;28;20134;-75
2021/08/25 07:35:07;;;;;;;3.78;1.80;;;;;;;;;;5018868;28;20057;-75
2021/08/25 07:37:34;;;;;;;4.35;1.88;;;;;;;;;;5020726;28;20454;-76
2021/08/25 07:40:00;;;;;;;2.58;1.60;;;;;;;;;;5017563;28;20076;-74
2021/08/25 07:42:27;;;;;;;3.38;1.70;;;;;;;;;;5018339;28;20124;-76
2021/08/25 07:44:53;;;;;;;4.13;1.77;;;;;;;;;;5018806;28;21194;-75
2021/08/25 07:47:19;;;;;;;4.47;1.95;;;;;;;;;;5025701;28;20072;-76
2021/08/25 07:49:46;;;;;;;3.22;1.63;;;;;;;;;;5016366;28;20797;-76
2021/08/25 07:52:12;;;;;;;4.60;1.73;;;;;;;;;;5021185;28;20073;-76
2021/08/25 07:54:39;;;;;;;2.60;1.52;;;;;;;;;;5023078;28;20528;-75
2021/08/25 07:57:05;;;;;;;2.65;1.58;;;;;;;;;;5017349;28;20065;-75
2021/08/25 07:59:32;;;;;;;3.60;2.03;;;;;;;;;;5020499;28;20509;-75
2021/08/25 08:01:58;;;;;;;3.50;1.67;;;;;;;;;;5009724;28;20157;-75
2021/08/25 08:04:26;;;;;;;4.22;1.80;;;;;;;;;;5011417;28;20057;-74
2021/08/25 08:06:53;;;;;;;4.90;2.00;;;;;;;;;;5007694;28;20057;-75
2021/08/25 08:09:19;;;;;;;3.22;1.90;;;;;;;;;;5010136;28;20033;-75
2021/08/25 08:11:46;;;;;;;4.32;1.92;;;;;;;;;;5017811;28;20061;-76
2021/08/25 08:14:13;;;;;;;3.90;1.83;;;;;;;;;;5015047;28;20069;-75
2021/08/25 08:16:44;;;;;;;3.83;1.83;;;;;;;;;;5009099;28;20522;-76
2021/08/25 08:19:19;;;;;;;4.97;2.10;;;;;;;;;;5021248;28;20069;-75
2021/08/25 08:21:46;;;;;;;4.78;2.13;;;;;;;;;;5018377;28;20057;-76
2021/08/25 08:24:12;;;;;;;4.03;1.90;;;;;;;;;;5017339;28;20053;-76
2021/08/25 08:26:40;;;;;;;4.70;1.65;;;;;;;;;;5010779;28;20068;-75
2021/08/25 08:29:06;;;;;;;3.88;2.00;;;;;;;;;;5013234;28;20164;-74
2021/08/25 08:31:33;;;;;;;4.85;2.17;;;;;;;;;;5008248;28;20065;-75
2021/08/25 08:33:59;;;;;;;4.28;1.80;;;;;;;;;;5012624;28;20057;-76
2021/08/25 08:36:26;;;;;;;3.65;1.92;;;;;;;;;;5025263;28;20061;-76
2021/08/25 08:38:53;;;;;;;3.90;2.15;;;;;;;;;;5019095;28;20554;-76
2021/08/25 08:41:20;;;;;;;3.90;2.30;;;;;;;;;;5023832;28;20056;-74
2021/08/25 08:43:47;;;;;;;4.18;1.80;;;;;;;;;;5024575;28;20201;-75
2021/08/25 08:46:14;;;;;;;3.90;1.90;;;;;;;;;;5033190;28;20065;-75
2021/08/25 08:48:41;;;;;;;4.68;1.90;;;;;;;;;;5012369;28;20057;-76
2021/08/25 08:51:09;;;;;;;3.90;1.80;;;;;;;;;;5020453;28;20579;-74
2021/08/25 08:53:36;;;;;;;4.55;2.20;;;;;;;;;;5009632;28;20065;-74
2021/08/25 08:56:02;;;;;;;3.22;2.00;;;;;;;;;;5026872;28;20072;-74
2021/08/25 08:58:29;;;;;;;3.08;1.70;;;;;;;;;;5024845;28;20706;-76
2021/08/25 09:00:55;;;;;;;3.03;1.77;;;;;;;;;;5020357;28;20053;-73
2021/08/25 09:03:23;;;;;;;2.83;1.60;;;;;;;;;;5011765;28;20552;-74
2021/08/25 09:05:54;;;;;;;3.85;1.80;;;;;;;;;;5020538;28;20061;-74
2021/08/25 09:08:27;;;;;;;5.32;2.08;;;;;;;;;;5024166;28;20563;-76
2021/08/25 09:11:01;;;;;;;4.03;2.40;;;;;;;;;;5008957;28;20069;-75
2021/08/25 09:13:34;;;;;;;5.63;2.25;;;;;;;;;;4994794;28;20056;-76
2021/08/25 09:16:01;;;;;;;2.75;1.65;;;;;;;;;;5015063;28;20113;-73
2021/08/25 09:18:27;;;;;;;5.75;2.30;;;;;;;;;;5018088;28;20060;-76
2021/08/25 09:20:53;;;;;;;3.55;1.83;;;;;;;;;;5024014;28;20061;-75
2021/08/25 09:23:27;;;;;;;3.42;1.75;;;;;;;;;;5019320;28;20150;-75
2021/08/25 09:26:00;;;;;;;3.78;1.95;;;;;;;;;;5032454;28;20126;-75
2021/08/25 09:28:29;;;;;;;5.43;2.22;;;;;;;;;;5032496;28;20507;-75
2021/08/25 09:30:57;;;;;;;4.13;1.98;;;;;;;;;;5014008;28;20080;-74
2021/08/25 09:33:26;;;;;;;4.20;2.33;;;;;;;;;;5019567;28;20066;-75
2021/08/25 09:35:57;;;;;;;3.88;1.80;;;;;;;;;;5020257;28;20130;-76
2021/08/25 09:38:24;;;;;;;4.18;2.13;;;;;;;;;;5020433;28;20111;-77
2021/08/25 09:40:52;;;;;;;5.30;2.15;;;;;;;;;;5032048;28;20104;-76
2021/08/25 09:43:28;;;;;;;3.60;1.90;;;;;;;;;;5011218;28;20046;-75
2021/08/25 09:46:12;;;;;;;5.13;2.50;;;;;;;;;;5023413;28;20319;-75
2021/08/25 09:48:40;;;;;;;3.65;2.33;;;;;;;;;;5015295;28;20586;-75
2021/08/25 09:51:07;;;;;;;3.53;2.10;;;;;;;;;;5019788;28;20709;-75
2021/08/25 09:53:33;;;;;;;5.15;2.03;;;;;;;;;;5010319;28;20133;-74
2021/08/25 09:56:00;;;;;;;5.72;2.17;;;;;;;;;;5017947;28;20536;-77
2021/08/25 09:58:26;;;;;;;5.80;2.03;;;;;;;;;;5013360;28;20054;-76
2021/08/25 10:00:58;;;;;;;6.70;2.30;;;;;;;;;;5025249;28;20091;-76
2021/08/25 10:03:25;;;;;;;5.93;2.20;;;;;;;;;;5023397;28;20057;-75
2021/08/25 10:05:51;;;;;;;5.47;2.08;;;;;;;;;;5022513;28;20057;-74
2021/08/25 10:08:18;;;;;;;3.45;1.98;;;;;;;;;;5015803;28;20503;-74
2021/08/25 10:10:45;;;;;;;7.78;2.17;;;;;;;;;;5016997;28;20065;-74
2021/08/25 10:13:12;;;;;;;5.82;2.10;;;;;;;;;;5010767;28;20042;-74
2021/08/25 10:15:44;;;;;;;3.90;2.25;;;;;;;;;;5025674;28;20138;-74
2021/08/25 10:18:22;;;;;;;6.72;2.40;;;;;;;;;;5014924;28;20143;-74
2021/08/25 10:20:48;;;;;;;5.30;2.58;;;;;;;;;;5014898;28;20462;-74
2021/08/25 10:23:15;;;;;;;5.38;2.45;;;;;;;;;;5012681;28;20073;-76
2021/08/25 10:26:00;;;;;;;10.20;3.45;;;;;;;;;;5012815;28;20053;-76
2021/08/25 10:28:26;;;;;;;6.32;3.08;;;;;;;;;;5008499;28;20058;-74
2021/08/25 10:30:54;;;;;;;7.93;4.25;;;;;;;;;;5010412;28;20061;-76
2021/08/25 10:33:21;;;;;;;9.35;5.20;;;;;;;;;;5026156;28;20080;-74
2021/08/25 10:35:47;;;;;;;15.95;10.05;;;;;;;;;;5012560;28;20070;-74
2021/08/25 10:38:16;;;;;;;16.27;9.23;;;;;;;;;;5018194;28;20060;-75
2021/08/25 10:40:43;;;;;;;14.63;7.53;;;;;;;;;;5015176;28;20061;-75
2021/08/25 10:43:10;;;;;;;11.57;7.65;;;;;;;;;;5012251;28;20072;-74
2021/08/25 10:45:39;;;;;;;12.25;6.03;;;;;;;;;;5018437;28;20061;-74
2021/08/25 10:48:09;;;;;;;12.55;7.18;;;;;;;;;;5022131;28;20084;-75
2021/08/25 10:50:55;;;;;;;11.02;5.60;;;;;;;;;;5009876;28;20054;-73
2021/08/25 10:53:31;;;;;;;11.00;5.90;;;;;;;;;;5017066;28;20068;-74
2021/08/25 10:56:07;;;;;;;10.23;5.53;;;;;;;;;;5014514;28;23296;-75
2021/08/25 10:58:46;;;;;;;9.70;5.30;;;;;;;;;;5011845;28;20054;-75
2021/08/25 11:01:30;;;;;;;9.80;4.55;;;;;;;;;;5016554;28;20042;-75
2021/08/25 11:03:57;;;;;;;8.30;4.47;;;;;;;;;;5014982;28;20072;-75
2021/08/25 11:06:31;;;;;;;9.77;4.82;;;;;;;;;;5012391;28;20025;-74
2021/08/25 11:09:14;;;;;;;8.68;4.38;;;;;;;;;;5008966;28;20515;-74
2021/08/25 11:11:44;;;;;;;8.00;3.78;;;;;;;;;;5019164;28;20441;-75
2021/08/25 11:14:15;;;;;;;7.68;3.67;;;;;;;;;;5016354;28;20064;-74
2021/08/25 11:16:41;;;;;;;;;;;;;;;;;;5020907;28;20060;-74
2021/08/25 11:19:08;;;;;;;8.13;4.25;;;;;;;;;;5016276;28;19953;-73
2021/08/25 11:21:38;;;;;;;9.77;4.05;;;;;;;;;;5014805;28;20594;-74
2021/08/25 11:24:05;;;;;;;10.00;3.80;;;;;;;;;;5017561;28;20052;-73
2021/08/25 11:26:31;;;;;;;8.15;3.63;;;;;;;;;;5028650;28;20029;-74
2021/08/25 11:28:58;;;;;;;9.27;3.83;;;;;;;;;;5029673;28;20106;-74
2021/08/25 11:31:27;;;;;;;6.70;3.08;;;;;;;;;;5029309;28;20130;-73
2021/08/25 11:33:54;;;;;;;9.15;3.50;;;;;;;;;;5012515;28;20058;-73
2021/08/25 11:36:20;;;;;;;7.97;4.07;;;;;;;;;;5009718;28;20069;-75
2021/08/25 11:38:47;;;;;;;10.60;4.32;;;;;;;;;;5019009;28;20069;-74
2021/08/25 11:41:13;;;;;;;8.55;3.58;;;;;;;;;;5014642;28;20091;-74
2021/08/25 11:43:49;;;;;;;10.82;3.63;;;;;;;;;;5011657;28;20116;-75
2021/08/25 11:46:24;;;;;;;6.65;3.67;;;;;;;;;;5020478;28;20536;-74
2021/08/25 11:48:51;;;;;;;9.98;3.70;;;;;;;;;;5017230;28;20046;-75
2021/08/25 11:51:18;;;;;;;8.88;3.53;;;;;;;;;;5010276;28;20180;-74
2021/08/25 11:53:46;;;;;;;9.52;3.78;;;;;;;;;;5017618;28;20061;-75
2021/08/25 11:56:13;;;;;;;6.60;3.47;;;;;;;;;;5004914;28;20108;-75
2021/08/25 11:58:41;;;;;;;6.85;3.17;;;;;;;;;;5017275;28;20069;-74
2021/08/25 12:01:20;;;;;;;10.50;4.00;;;;;;;;;;5029731;28;20740;-75
2021/08/25 12:03:47;;;;;;;8.57;3.45;;;;;;;;;;5020745;28;20115;-74
2021/08/25 12:06:15;;;;;;;9.50;3.53;;;;;;;;;;5014636;28;20058;-74
2021/08/25 12:08:43;;;;;;;9.98;4.07;;;;;;;;;;5011018;28;20095;-74
2021/08/25 12:11:10;;;;;;;9.82;3.33;;;;;;;;;;5017315;28;20072;-74
2021/08/25 12:13:43;;;;;;;9.65;3.33;;;;;;;;;;5025013;28;20458;-74
2021/08/25 12:16:22;;;;;;;8.25;3.38;;;;;;;;;;5023214;28;20133;-74
2021/08/25 12:18:56;;;;;;;9.90;4.18;;;;;;;;;;5021133;28;20065;-74
2021/08/25 12:21:29;;;;;;;10.68;3.53;;;;;;;;;;5026568;28;20037;-74
2021/08/25 12:23:56;;;;;;;10.10;3.85;;;;;;;;;;5011819;28;20053;-73
2021/08/25 12:26:22;;;;;;;12.50;3.70;;;;;;;;;;5015915;28;20057;-74
2021/08/25 12:28:49;;;;;;;7.78;3.83;;;;;;;;;;5023893;28;20067;-73
2021/08/25 12:31:19;;;;;;;7.93;3.78;;;;;;;;;;5022498;28;20191;-72
2021/08/25 12:33:51;;;;;;;7.82;3.30;;;;;;;;;;5022586;28;20077;-73
2021/08/25 12:36:17;;;;;;;;;;;;;;;;;;5032130;28;20509;-73
2021/08/25 12:38:43;;;;;;;7.07;3.08;;;;;;;;;;5021196;28;19955;-74
2021/08/25 12:41:10;;;;;;;7.35;3.67;;;;;;;;;;5026394;28;20061;-74
2021/08/25 12:43:36;;;;;;;8.02;3.63;;;;;;;;;;5019286;28;20053;-73
2021/08/25 12:46:02;;;;;;;12.02;3.67;;;;;;;;;;5027880;28;20038;-73
2021/08/25 12:48:29;;;;;;;8.52;3.47;;;;;;;;;;5026115;28;20716;-75
2021/08/25 12:50:55;;;;;;;10.60;3.33;;;;;;;;;;5030856;28;20056;-75
2021/08/25 12:53:21;;;;;;;9.55;3.00;;;;;;;;;;5024685;28;20067;-73
2021/08/25 12:55:48;;;;;;;7.07;3.50;;;;;;;;;;5018698;28;20139;-73
2021/08/25 12:58:14;;;;;;;8.73;3.78;;;;;;;;;;5014533;28;20106;-73
2021/08/25 13:00:40;;;;;;;10.43;3.10;;;;;;;;;;5024026;28;20120;-74
2021/08/25 13:03:07;;;;;;;8.90;3.38;;;;;;;;;;5018621;28;20126;-73
2021/08/25 13:05:33;;;;;;;9.43;3.78;;;;;;;;;;5024314;28;20068;-73
2021/08/25 13:08:00;;;;;;;11.02;3.60;;;;;;;;;;5021126;28;20053;-74
2021/08/25 13:10:26;;;;;;;10.88;3.75;;;;;;;;;;5026164;28;20068;-73
2021/08/25 13:12:52;;;;;;;9.32;3.83;;;;;;;;;;5019149;28;20096;-73
2021/08/25 13:15:19;;;;;;;7.40;3.30;;;;;;;;;;5030292;28;20060;-74
2021/08/25 13:17:45;;;;;;;7.28;2.88;;;;;;;;;;5022917;28;20061;-74
2021/08/25 13:20:12;;;;;;;5.90;2.75;;;;;;;;;;5025532;28;20056;-73
2021/08/25 13:22:38;;;;;;;8.98;3.30;;;;;;;;;;5019782;28;20521;-73
2021/08/25 13:25:05;;;;;;;6.82;2.78;;;;;;;;;;5026469;28;20057;-73
2021/08/25 13:27:31;;;;;;;7.95;3.03;;;;;;;;;;5031177;28;20065;-74
2021/08/25 13:29:58;;;;;;;8.10;2.80;;;;;;;;;;5024910;28;20068;-73
2021/08/25 13:32:24;;;;;;;5.68;2.50;;;;;;;;;;5022315;28;20119;-74
2021/08/25 13:34:50;;;;;;;6.10;2.78;;;;;;;;;;5022617;28;20422;-74
2021/08/25 13:37:17;;;;;;;6.28;2.38;;;;;;;;;;5019260;28;20053;-73
2021/08/25 13:39:43;;;;;;;8.27;2.65;;;;;;;;;;5022626;28;20451;-72
2021/08/25 13:42:10;;;;;;;10.13;2.55;;;;;;;;;;5021479;28;20053;-72
2021/08/25 13:44:36;;;;;;;6.47;2.30;;;;;;;;;;5023041;28;20432;-73
2021/08/25 13:47:03;;;;;;;7.55;2.55;;;;;;;;;;5033084;28;20053;-73
2021/08/25 13:49:29;;;;;;;8.70;2.00;;;;;;;;;;5018856;28;20098;-77
2021/08/25 13:51:55;;;;;;;4.55;2.13;;;;;;;;;;5022050;28;20091;-74
2021/08/25 13:54:22;;;;;;;5.95;2.50;;;;;;;;;;5009275;28;20037;-74
2021/08/25 13:56:48;;;;;;;5.00;2.20;;;;;;;;;;5015456;28;20041;-73
2021/08/25 13:59:15;;;;;;;4.00;1.90;;;;;;;;;;5021773;28;20049;-74
2021/08/25 14:01:41;;;;;;;6.55;2.30;;;;;;;;;;5023784;28;20072;-74
2021/08/25 14:04:07;;;;;;;6.38;2.00;;;;;;;;;;5018446;28;20077;-75
2021/08/25 14:06:34;;;;;;;6.50;2.38;;;;;;;;;;5019037;28;20053;-73
2021/08/25 14:09:00;;;;;;;5.72;2.17;;;;;;;;;;5019865;28;20455;-73
2021/08/25 14:11:27;;;;;;;5.10;1.92;;;;;;;;;;5023380;28;20065;-74
2021/08/25 14:13:53;;;;;;;7.13;1.88;;;;;;;;;;5031638;28;20053;-74
2021/08/25 14:16:20;;;;;;;4.55;1.60;;;;;;;;;;5021927;28;20053;-74
2021/08/25 14:18:46;;;;;;;3.78;1.50;;;;;;;;;;5022271;28;20112;-74
2021/08/25 14:21:13;;;;;;;5.75;1.42;;;;;;;;;;5022455;28;20069;-73
2021/08/25 14:23:39;;;;;;;5.72;1.67;;;;;;;;;;5010964;28;20061;-73
2021/08/25 14:26:05;;;;;;;4.55;1.98;;;;;;;;;;5014421;28;20065;-73
2021/08/25 14:28:32;;;;;;;4.60;1.50;;;;;;;;;;5019833;28;20065;-74
2021/08/25 14:30:58;;;;;;;4.50;1.45;;;;;;;;;;5013003;28;20490;-74
2021/08/25 14:33:25;;;;;;;5.43;1.70;;;;;;;;;;5016119;28;20068;-73
2021/08/25 14:35:52;;;;;;;5.60;1.67;;;;;;;;;;5008527;28;20069;-74
2021/08/25 14:38:19;;;;;;;4.88;1.63;;;;;;;;;;5016792;28;20057;-73
2021/08/25 14:40:46;;;;;;;5.47;2.00;;;;;;;;;;5022452;28;20114;-74
2021/08/25 14:43:13;;;;;;;4.75;1.02;;;;;;;;;;5023638;28;20030;-74
2021/08/25 14:45:39;;;;;;;3.55;1.20;;;;;;;;;;5012242;28;20062;-73